Bad Axe, MI

2:47 AM EST on February 10, 2016 (GMT -0500)
Thumb sunrise side | | Change Station
CLOSE
Current Station
Personal Weather Station
Location: Bad Axe, MI
Elevation: 758 ft
Nearby Weather Stations

Elev 758 ft 43.79 °N, 83.00 °W | Updated 2 minutes ago

Light Snow
Light Snow
18.7 °F
Feels Like 10 °F
N
6.8
Wind Variable Wind from WNW

Today
High -- | Low -- °F
--% Chance of Precip.
Yesterday
High -- | Low -- °F
Precip. -- in
Pressure 29.66 in
Visibility 7.0 miles
Clouds Mostly Cloudy 1100 ft
Overcast 2100 ft
Windchill 10 °F
Dew Point 17 °F
Humidity 94%
Rainfall 0.00 in
Snow Depth Not available.
7:38 AM 5:54 PM
Waxing Crescent, 4% visible
METAR KBAX 100734Z AUTO 30007KT 7SM -SN BKN011 OVC021 M06/M08 A2966 RMK AO2 T10651080
Pressure 29.66 in
Visibility 7.0 miles
Clouds Mostly Cloudy 1100 ft
Overcast 2100 ft
Windchill 10 °F
Dew Point 17 °F
Humidity 94%
Rainfall 0.00 in
Snow Depth Not available.
7:38 AM 5:54 PM
Waxing Crescent, 4% visible
METAR KBAX 100734Z AUTO 30007KT 7SM -SN BKN011 OVC021 M06/M08 A2966 RMK AO2 T10651080

10-Day Weather Forecast

Almanac

Astronomy

Feb. 10, 2016 Rise Set
Actual Time
Civil Twilight
Nautical Twilight
Astronomical Twilight
Moon
Length of Visible Light
Length of Day
Tomorrow will be .
, % of the Moon is Illuminated

Today's Extremes

State Highs State Lows

Community

WunderPhotos

Upload Photos

1,891,826 photos uploaded!

WunderBlog® & News

Nearby

Air Quality

  Air Quality AQ Index Pollutant
Not available.

Snow Depth

Station Depth Elevation

Earthquake Activity

City Distance Mag. Time & Date
Minimum magnitude displayed is 2.5.

Coastal Water Temperatures

Place Temperature

Stations

Nearby Weather Stations

Station Location Temp. Windchill Dew Point Humidity Wind Precip. Elev Updated Type
                   

Watches & Warnings

There are currently no watches in effect.